Time,TemperatureF,DewpointF,PressureIn,WindDirection,WindDirectionDegrees,WindSpeedMPH,WindSpeedGustMPH,Humidity,HourlyPrecipIn,Conditions,Clouds,dailyrainin,SoftwareType,DateUTC
2013-06-30 00:01:00,70.0,45.0,30.15,East,82,18.0,25.0,41,0.00,,,0.02,,2013-06-30 06:01:00,
2013-06-30 00:22:00,69.0,46.0,30.14,East,82,14.0,22.0,44,0.00,,,0.02,,2013-06-30 06:22:00,
2013-06-30 00:33:00,69.0,46.0,30.14,ENE,71,12.0,21.0,43,0.00,,,0.02,,2013-06-30 06:33:00,
2013-06-30 00:43:00,69.0,46.0,30.14,ENE,76,16.0,23.0,44,0.00,,,0.02,,2013-06-30 06:43:00,
2013-06-30 00:53:00,69.0,45.0,30.14,NE,56,14.0,21.0,42,0.00,,,0.02,,2013-06-30 06:53:00,
2013-06-30 01:22:00,68.0,46.0,30.15,ENE,77,17.0,27.0,45,0.00,,,0.02,,2013-06-30 07:22:00,
2013-06-30 01:33:00,68.0,47.0,30.15,East,80,17.0,25.0,47,0.00,,,0.02,,2013-06-30 07:33:00,
2013-06-30 01:44:00,68.0,47.0,30.15,East,88,18.0,25.0,47,0.00,,,0.02,,2013-06-30 07:44:00,
2013-06-30 01:53:00,68.0,47.0,30.15,ENE,67,18.0,27.0,47,0.00,,,0.02,,2013-06-30 07:53:00,
2013-06-30 02:02:00,67.0,46.0,30.15,ENE,73,15.0,24.0,47,0.00,,,0.02,,2013-06-30 08:02:00,
2013-06-30 02:11:00,67.0,47.0,30.15,ENE,71,12.0,16.0,49,0.00,,,0.02,,2013-06-30 08:11:00,
2013-06-30 02:22:00,67.0,47.0,30.15,ENE,78,14.0,23.0,49,0.00,,,0.02,,2013-06-30 08:22:00,
2013-06-30 02:33:00,67.0,47.0,30.15,East,81,14.0,22.0,49,0.00,,,0.02,,2013-06-30 08:33:00,
2013-06-30 02:42:00,67.0,47.0,30.15,East,91,17.0,25.0,49,0.00,,,0.02,,2013-06-30 08:42:00,
2013-06-30 02:53:00,67.0,47.0,30.15,ENE,66,13.0,25.0,49,0.00,,,0.02,,2013-06-30 08:53:00,
2013-06-30 03:01:00,67.0,48.0,30.15,ENE,67,12.0,21.0,50,0.00,,,0.02,,2013-06-30 09:01:00,
2013-06-30 03:11:00,66.0,47.0,30.14,ENE,76,14.0,22.0,50,0.00,,,0.02,,2013-06-30 09:11:00,
2013-06-30 03:23:00,66.0,47.0,30.15,East,94,11.0,22.0,50,0.00,,,0.02,,2013-06-30 09:23:00,
2013-06-30 03:33:00,66.0,47.0,30.15,East,94,10.0,14.0,51,0.00,,,0.02,,2013-06-30 09:33:00,
2013-06-30 03:43:00,66.0,48.0,30.15,East,90,10.0,15.0,52,0.00,,,0.02,,2013-06-30 09:43:00,
2013-06-30 03:52:00,66.0,48.0,30.15,ENE,76,11.0,15.0,52,0.00,,,0.02,,2013-06-30 09:52:00,
2013-06-30 04:02:00,66.0,48.0,30.14,East,80,13.0,16.0,52,0.00,,,0.02,,2013-06-30 10:02:00,
2013-06-30 04:11:00,66.0,47.0,30.14,East,91,14.0,18.0,50,0.00,,,0.02,,2013-06-30 10:11:00,
2013-06-30 04:22:00,66.0,47.0,30.14,East,86,11.0,17.0,51,0.00,,,0.02,,2013-06-30 10:22:00,
2013-06-30 04:33:00,65.0,47.0,30.14,East,79,12.0,15.0,52,0.00,,,0.02,,2013-06-30 10:33:00,
2013-06-30 04:42:00,65.0,46.0,30.14,East,80,13.0,16.0,51,0.00,,,0.02,,2013-06-30 10:42:00,
2013-06-30 04:53:00,65.0,46.0,30.14,East,87,12.0,14.0,50,0.00,,,0.02,,2013-06-30 10:53:00,
2013-06-30 05:02:00,65.0,46.0,30.14,East,86,10.0,14.0,50,0.00,,,0.02,,2013-06-30 11:02:00,
2013-06-30 05:11:00,65.0,46.0,30.14,East,86,9.0,13.0,50,0.00,,,0.02,,2013-06-30 11:11:00,
2013-06-30 05:22:00,66.0,46.0,30.14,ENE,66,8.0,11.0,49,0.00,,,0.02,,2013-06-30 11:22:00,
2013-06-30 05:33:00,64.0,46.0,30.14,ENE,67,5.0,10.0,52,0.00,,,0.02,,2013-06-30 11:33:00,
2013-06-30 05:43:00,64.0,46.0,30.15,NE,52,8.0,10.0,52,0.00,,,0.02,,2013-06-30 11:43:00,
2013-06-30 05:53:00,63.0,46.0,30.15,ENE,59,5.0,9.0,54,0.00,,,0.02,,2013-06-30 11:53:00,
2013-06-30 06:01:00,64.0,46.0,30.15,NE,55,1.0,7.0,52,0.00,,,0.02,,2013-06-30 12:01:00,
2013-06-30 06:11:00,64.0,47.0,30.15,NE,55,0.0,1.0,53,0.00,,,0.02,,2013-06-30 12:11:00,
2013-06-30 06:33:00,64.0,44.0,30.15,NE,55,0.0,0.0,49,0.00,,,0.02,,2013-06-30 12:33:00,
2013-06-30 06:43:00,66.0,45.0,30.16,NE,55,0.0,3.0,46,0.00,,,0.02,,2013-06-30 12:43:00,
2013-06-30 06:52:00,67.0,44.0,30.16,SSW,197,2.0,6.0,43,0.00,,,0.02,,2013-06-30 12:52:00,
2013-06-30 07:33:00,67.0,48.0,30.16,East,82,3.0,7.0,50,0.00,,,0.02,,2013-06-30 13:33:00,
2013-06-30 07:43:00,67.0,47.0,30.16,ESE,109,7.0,10.0,49,0.00,,,0.02,,2013-06-30 13:43:00,
2013-06-30 08:33:00,70.0,48.0,30.17,SE,127,10.0,13.0,45,0.00,,,0.02,,2013-06-30 14:33:00,
2013-06-30 08:44:00,70.0,48.0,30.17,ESE,117,8.0,13.0,46,0.00,,,0.02,,2013-06-30 14:44:00,
2013-06-30 08:52:00,71.0,47.0,30.18,ESE,113,6.0,11.0,43,0.00,,,0.02,,2013-06-30 14:52:00,
2013-06-30 09:34:00,75.0,49.0,30.18,ESE,120,5.0,10.0,40,0.00,,,0.02,,2013-06-30 15:34:00,
2013-06-30 09:44:00,75.0,45.0,30.18,SE,132,7.0,10.0,35,0.00,,,0.02,,2013-06-30 15:44:00,
2013-06-30 10:21:00,77.0,49.0,30.18,East,101,5.0,9.0,37,0.00,,,0.02,,2013-06-30 16:21:00,
2013-06-30 10:34:00,78.0,47.0,30.18,ESE,121,4.0,9.0,34,0.00,,,0.02,,2013-06-30 16:34:00,
2013-06-30 10:43:00,78.0,45.0,30.18,SE,135,5.0,7.0,31,0.00,,,0.02,,2013-06-30 16:43:00,
2013-06-30 10:53:00,79.0,46.0,30.18,ESE,107,3.0,8.0,31,0.00,,,0.02,,2013-06-30 16:53:00,
2013-06-30 11:01:00,79.0,46.0,30.18,SE,127,3.0,8.0,31,0.00,,,0.02,,2013-06-30 17:01:00,
2013-06-30 11:11:00,80.0,47.0,30.18,SE,126,3.0,7.0,32,0.00,,,0.02,,2013-06-30 17:11:00,
2013-06-30 11:23:00,80.0,45.0,30.18,SE,140,2.0,7.0,29,0.00,,,0.02,,2013-06-30 17:23:00,
2013-06-30 11:52:00,83.0,46.0,30.18,South,169,3.0,5.0,27,0.00,,,0.02,,2013-06-30 17:52:00,
2013-06-30 12:01:00,83.0,46.0,30.17,East,94,1.0,7.0,27,0.00,,,0.02,,2013-06-30 18:01:00,
2013-06-30 12:12:00,84.0,46.0,30.17,SSE,162,1.0,7.0,27,0.00,,,0.02,,2013-06-30 18:12:00,
2013-06-30 12:22:00,83.0,49.0,30.17,WNW,284,2.0,6.0,31,0.00,,,0.02,,2013-06-30 18:22:00,
2013-06-30 12:33:00,82.0,52.0,30.17,West,265,4.0,9.0,35,0.00,,,0.02,,2013-06-30 18:33:00,
2013-06-30 12:43:00,83.0,49.0,30.17,ENE,74,1.0,6.0,31,0.00,,,0.02,,2013-06-30 18:43:00,
2013-06-30 12:53:00,84.0,53.0,30.17,WNW,301,2.0,8.0,34,0.00,,,0.02,,2013-06-30 18:53:00,
2013-06-30 13:01:00,84.0,48.0,30.17,West,279,1.0,8.0,29,0.00,,,0.02,,2013-06-30 19:01:00,
2013-06-30 13:11:00,85.0,49.0,30.17,WNW,294,4.0,10.0,29,0.00,,,0.02,,2013-06-30 19:11:00,
2013-06-30 13:22:00,85.0,44.0,30.17,NNW,327,2.0,10.0,24,0.00,,,0.02,,2013-06-30 19:22:00,
2013-06-30 13:33:00,86.0,47.0,30.18,NW,325,5.0,13.0,26,0.00,,,0.02,,2013-06-30 19:33:00,
2013-06-30 13:43:00,86.0,45.0,30.17,ENE,78,0.0,10.0,24,0.00,,,0.02,,2013-06-30 19:43:00,
2013-06-30 14:01:00,86.0,43.0,30.17,NW,323,1.0,11.0,22,0.00,,,0.02,,2013-06-30 20:01:00,
2013-06-30 14:11:00,86.0,43.0,30.17,West,276,3.0,10.0,22,0.00,,,0.02,,2013-06-30 20:11:00,
2013-06-30 14:21:00,86.0,43.0,30.17,NW,310,6.0,11.0,22,0.00,,,0.02,,2013-06-30 20:21:00,
2013-06-30 14:34:00,86.0,41.0,30.16,NW,320,4.0,11.0,21,0.00,,,0.02,,2013-06-30 20:34:00,
2013-06-30 14:42:00,87.0,40.0,30.16,NNW,327,5.0,10.0,19,0.00,,,0.02,,2013-06-30 20:42:00,
2013-06-30 14:52:00,87.0,38.0,30.16,NW,311,2.0,13.0,18,0.00,,,0.02,,2013-06-30 20:52:00,
2013-06-30 15:01:00,86.0,36.0,30.16,West,281,7.0,15.0,17,0.00,,,0.02,,2013-06-30 21:01:00,
2013-06-30 15:11:00,87.0,38.0,30.16,NW,310,7.0,14.0,18,0.00,,,0.02,,2013-06-30 21:11:00,
2013-06-30 15:22:00,86.0,38.0,30.16,West,269,6.0,13.0,18,0.00,,,0.02,,2013-06-30 21:22:00,
2013-06-30 15:33:00,87.0,37.0,30.16,NW,309,6.0,14.0,17,0.00,,,0.02,,2013-06-30 21:33:00,
2013-06-30 15:53:00,87.0,37.0,30.15,NW,304,0.0,11.0,17,0.00,,,0.02,,2013-06-30 21:53:00,
2013-06-30 16:11:00,87.0,35.0,30.15,NW,312,4.0,10.0,16,0.00,,,0.02,,2013-06-30 22:11:00,
2013-06-30 16:22:00,88.0,38.0,30.15,NW,318,3.0,9.0,17,0.00,,,0.02,,2013-06-30 22:22:00,
2013-06-30 16:34:00,88.0,35.0,30.15,ENE,76,1.0,13.0,15,0.00,,,0.02,,2013-06-30 22:34:00,
2013-06-30 16:43:00,88.0,36.0,30.15,NNW,329,2.0,10.0,16,0.00,,,0.02,,2013-06-30 22:43:00,
2013-06-30 16:52:00,88.0,39.0,30.14,NW,313,1.0,8.0,18,0.00,,,0.02,,2013-06-30 22:52:00,
2013-06-30 17:01:00,88.0,35.0,30.14,NW,314,0.0,9.0,15,0.00,,,0.02,,2013-06-30 23:01:00,
2013-06-30 17:11:00,89.0,37.0,30.14,WNW,293,0.0,6.0,16,0.00,,,0.02,,2013-06-30 23:11:00,
2013-06-30 17:22:00,88.0,36.0,30.13,North,360,1.0,7.0,16,0.00,,,0.02,,2013-06-30 23:22:00,
2013-06-30 17:33:00,89.0,35.0,30.13,East,82,0.0,9.0,15,0.00,,,0.02,,2013-06-30 23:33:00,
2013-06-30 17:43:00,88.0,35.0,30.12,NNE,26,0.0,4.0,15,0.00,,,0.02,,2013-06-30 23:43:00,
2013-06-30 17:53:00,89.0,34.0,30.12,NE,46,0.0,5.0,14,0.00,,,0.02,,2013-06-30 23:53:00,
2013-06-30 18:11:00,88.0,35.0,30.11,East,88,3.0,8.0,15,0.00,,,0.02,,2013-07-01 00:11:00,
2013-06-30 18:22:00,88.0,33.0,30.11,ENE,78,2.0,8.0,14,0.00,,,0.02,,2013-07-01 00:22:00,
2013-06-30 18:33:00,87.0,32.0,30.11,ENE,67,4.0,8.0,14,0.00,,,0.02,,2013-07-01 00:33:00,
2013-06-30 18:42:00,87.0,30.0,30.11,ENE,72,3.0,8.0,13,0.00,,,0.02,,2013-07-01 00:42:00,
2013-06-30 18:52:00,88.0,35.0,30.11,ENE,72,0.0,3.0,15,0.00,,,0.02,,2013-07-01 00:52:00,
2013-06-30 19:01:00,87.0,30.0,30.11,ENE,72,1.0,4.0,13,0.00,,,0.02,,2013-07-01 01:01:00,
2013-06-30 19:11:00,87.0,32.0,30.11,ENE,72,1.0,4.0,14,0.00,,,0.02,,2013-07-01 01:11:00,
2013-06-30 19:22:00,87.0,37.0,30.11,ENE,72,0.0,4.0,17,0.00,,,0.02,,2013-07-01 01:22:00,
2013-06-30 19:42:00,87.0,32.0,30.10,East,80,0.0,2.0,14,0.00,,,0.02,,2013-07-01 01:42:00,
2013-06-30 19:52:00,86.0,33.0,30.11,East,80,1.0,3.0,15,0.00,,,0.02,,2013-07-01 01:52:00,
2013-06-30 20:02:00,85.0,34.0,30.10,East,80,0.0,2.0,16,0.00,,,0.02,,2013-07-01 02:02:00,
2013-06-30 20:11:00,85.0,34.0,30.10,East,80,2.0,3.0,16,0.00,,,0.02,,2013-07-01 02:11:00,
2013-06-30 20:22:00,84.0,33.0,30.10,East,80,2.0,3.0,16,0.00,,,0.02,,2013-07-01 02:22:00,
2013-06-30 20:43:00,82.0,38.0,30.10,East,80,0.0,3.0,21,0.00,,,0.02,,2013-07-01 02:43:00,
2013-06-30 20:53:00,81.0,37.0,30.10,East,80,0.0,2.0,21,0.00,,,0.02,,2013-07-01 02:53:00,
2013-06-30 21:01:00,80.0,38.0,30.10,East,80,0.0,1.0,22,0.00,,,0.02,,2013-07-01 03:01:00,
2013-06-30 21:11:00,79.0,38.0,30.11,East,80,0.0,2.0,23,0.00,,,0.02,,2013-07-01 03:11:00,
2013-06-30 21:33:00,79.0,36.0,30.11,East,80,2.0,3.0,21,0.00,,,0.02,,2013-07-01 03:33:00,
2013-06-30 21:43:00,79.0,36.0,30.11,East,80,0.0,3.0,21,0.00,,,0.02,,2013-07-01 03:43:00,
2013-06-30 21:52:00,79.0,36.0,30.12,East,80,2.0,3.0,21,0.00,,,0.00,,2013-07-01 03:52:00,
2013-06-30 22:01:00,78.0,37.0,30.13,ENE,76,4.0,5.0,23,0.00,,,0.00,,2013-07-01 04:01:00,
2013-06-30 22:11:00,77.0,37.0,30.13,ENE,76,3.0,4.0,24,0.00,,,0.00,,2013-07-01 04:11:00,
2013-06-30 22:22:00,77.0,37.0,30.13,ENE,73,5.0,5.0,24,0.00,,,0.00,,2013-07-01 04:22:00,
2013-06-30 22:32:00,77.0,37.0,30.13,ENE,73,5.0,5.0,24,0.00,,,0.00,,2013-07-01 04:32:00,
2013-06-30 22:42:00,77.0,37.0,30.13,ENE,73,5.0,5.0,24,0.00,,,0.00,,2013-07-01 04:42:00,
2013-06-30 22:52:00,77.0,36.0,30.14,ENE,69,3.0,5.0,23,0.00,,,0.00,,2013-07-01 04:52:00,
2013-06-30 23:01:00,77.0,37.0,30.14,ENE,69,2.0,4.0,24,0.00,,,0.00,,2013-07-01 05:01:00,
2013-06-30 23:11:00,77.0,37.0,30.14,ENE,69,3.0,5.0,24,0.00,,,0.00,,2013-07-01 05:11:00,
2013-06-30 23:22:00,76.0,39.0,30.14,ENE,68,4.0,7.0,26,0.00,,,0.00,,2013-07-01 05:22:00,
2013-06-30 23:32:00,75.0,40.0,30.14,ENE,71,4.0,8.0,28,0.00,,,0.00,,2013-07-01 05:32:00,
2013-06-30 23:42:00,75.0,40.0,30.14,ENE,69,4.0,7.0,28,0.00,,,0.00,,2013-07-01 05:42:00,
2013-06-30 23:52:00,75.0,39.0,30.14,ENE,72,0.0,7.0,27,0.00,,,0.00,,2013-07-01 05:52:00,